createdAt,value
2019-03-05T00:04:38.190Z,99.90
2019-03-05T00:09:41.806Z,98.40
2019-03-05T00:14:45.495Z,96.80
2019-03-05T00:19:49.184Z,97.60
2019-03-05T00:25:04.563Z,99.90
2019-03-05T00:30:17.034Z,99.90
2019-03-05T00:35:32.730Z,99.90
2019-03-05T00:40:54.257Z,99.90
2019-03-05T00:46:06.545Z,99.90
2019-03-05T00:51:44.615Z,99.90
2019-03-05T00:57:06.198Z,99.80
2019-03-05T01:02:22.000Z,99.90
2019-03-05T01:07:29.297Z,98.40
2019-03-05T01:12:32.890Z,98.50
2019-03-05T01:17:36.526Z,98.10
2019-03-05T01:22:40.281Z,97.50
2019-03-05T01:27:44.562Z,99.00
2019-03-05T01:32:50.017Z,98.70
2019-03-05T01:37:53.691Z,99.90
2019-03-05T01:42:58.165Z,99.90
2019-03-05T01:48:01.852Z,99.90
2019-03-05T01:53:05.742Z,99.80
2019-03-05T01:58:09.499Z,98.70
2019-03-05T02:03:13.174Z,98.10
2019-03-05T02:08:16.832Z,96.70
2019-03-05T02:13:20.554Z,96.00
2019-03-05T02:18:26.299Z,96.20
2019-03-05T02:23:35.795Z,96.20
2019-03-05T02:28:51.510Z,96.30
2019-03-05T02:34:16.525Z,95.80
2019-03-05T02:39:41.343Z,95.40
2019-03-05T02:45:07.451Z,95.90
2019-03-05T02:50:45.733Z,98.00
2019-03-05T02:56:04.232Z,99.90
2019-03-05T03:01:25.499Z,99.90
2019-03-05T03:06:29.848Z,99.90
2019-03-05T03:11:33.535Z,99.90
2019-03-05T03:16:37.234Z,99.90
2019-03-05T03:21:40.855Z,99.90
2019-03-05T03:26:44.496Z,99.90
2019-03-05T03:31:48.136Z,99.90
2019-03-05T03:36:51.727Z,99.90
2019-03-05T03:41:55.345Z,99.90
2019-03-05T03:47:00.431Z,99.90
2019-03-05T03:52:04.029Z,99.90
2019-03-05T03:57:07.716Z,99.90
2019-03-05T04:02:11.427Z,99.90
2019-03-05T04:07:15.331Z,99.90
2019-03-05T04:12:18.929Z,99.90
2019-03-05T04:17:22.595Z,99.90
2019-03-05T04:22:26.305Z,99.90
2019-03-05T04:27:30.073Z,99.90
2019-03-05T04:32:33.722Z,99.90
2019-03-05T04:37:37.343Z,99.90
2019-03-05T04:42:41.067Z,99.90
2019-03-05T04:47:44.704Z,99.90
2019-03-05T04:52:48.385Z,99.90
2019-03-05T04:57:52.026Z,99.90
2019-03-05T05:02:58.360Z,99.90
2019-03-05T05:08:01.470Z,99.90
2019-03-05T05:13:05.148Z,99.90
2019-03-05T05:18:08.799Z,99.90
2019-03-05T05:23:12.838Z,99.90
2019-03-05T05:28:16.532Z,99.90
2019-03-05T05:33:20.239Z,99.90
2019-03-05T05:38:23.836Z,99.90
2019-03-05T05:43:30.078Z,99.90
2019-03-05T05:48:33.706Z,99.90
2019-03-05T05:53:37.327Z,99.90
2019-03-05T05:58:41.123Z,99.90
2019-03-05T06:03:44.734Z,99.90
2019-03-05T06:08:48.372Z,99.90
2019-03-05T06:13:52.191Z,99.90
2019-03-05T06:18:58.573Z,99.90
2019-03-05T06:24:02.187Z,99.90
2019-03-05T06:29:05.799Z,99.90
2019-03-05T06:34:09.418Z,99.90
2019-03-05T06:39:13.306Z,99.90
2019-03-05T06:44:17.527Z,99.90
2019-03-05T06:49:21.146Z,99.90
2019-03-05T06:54:24.803Z,99.90
2019-03-05T06:59:28.499Z,99.90
2019-03-05T07:04:32.216Z,99.90
2019-03-05T07:09:59.928Z,99.90
2019-03-05T07:15:24.929Z,99.90
2019-03-05T07:21:04.788Z,99.90
2019-03-05T07:26:08.419Z,99.90
2019-03-05T07:31:12.072Z,99.90
2019-03-05T07:36:15.882Z,99.60
2019-03-05T07:41:20.364Z,98.60
2019-03-05T07:46:24.102Z,97.00
2019-03-05T07:51:27.716Z,95.80
2019-03-05T07:56:31.415Z,94.70
2019-03-05T08:01:35.243Z,93.10
2019-03-05T08:06:39.221Z,92.70
2019-03-05T08:11:42.826Z,92.50
2019-03-05T08:16:46.458Z,90.90
2019-03-05T08:21:50.073Z,87.40
2019-03-05T08:26:53.710Z,86.80
2019-03-05T08:31:57.329Z,86.80
2019-03-05T08:37:00.940Z,81.70
2019-03-05T08:42:05.044Z,81.40
2019-03-05T08:47:08.615Z,78.00
2019-03-05T08:52:12.255Z,74.70
2019-03-05T08:57:15.882Z,69.60
2019-03-05T09:02:19.523Z,64.30
2019-03-05T09:07:23.238Z,62.90
2019-03-05T09:12:27.221Z,61.90
2019-03-05T09:17:30.918Z,59.50
2019-03-05T09:22:34.551Z,58.50
2019-03-05T09:27:38.234Z,56.60
2019-03-05T09:32:41.889Z,55.90
2019-03-05T09:37:47.093Z,54.10
2019-03-05T09:42:51.445Z,53.20
2019-03-05T09:47:55.142Z,52.80
2019-03-05T09:52:58.911Z,51.60
2019-03-05T09:58:08.049Z,50.70
2019-03-05T10:03:08.242Z,50.90
2019-03-05T10:08:11.872Z,49.00
2019-03-05T10:13:15.555Z,49.20
2019-03-05T10:18:19.288Z,50.10
2019-03-05T10:23:22.918Z,49.10
2019-03-05T10:28:27.775Z,46.90
2019-03-05T10:33:31.466Z,44.80
2019-03-05T10:38:35.147Z,46.30
2019-03-05T10:43:39.040Z,46.30
2019-03-05T10:48:43.043Z,47.40
2019-03-05T10:53:46.814Z,48.00
2019-03-05T10:58:50.457Z,48.60
2019-03-05T11:03:54.057Z,48.10
2019-03-05T11:08:57.872Z,47.80
2019-03-05T11:14:01.471Z,47.00
2019-03-05T11:19:05.571Z,45.30
2019-03-05T11:24:09.512Z,43.20
2019-03-05T11:29:13.133Z,43.90
2019-03-05T11:34:16.847Z,42.80
2019-03-05T11:39:20.562Z,42.30
2019-03-05T11:44:24.246Z,42.50
2019-03-05T11:49:28.095Z,43.50
2019-03-05T11:54:31.724Z,42.90
2019-03-05T11:59:35.353Z,43.50
2019-03-05T12:04:39.019Z,43.20
2019-03-05T12:09:42.686Z,41.10
2019-03-05T12:14:46.336Z,41.40
2019-03-05T12:19:50.048Z,41.80
2019-03-05T12:24:53.750Z,41.30
2019-03-05T12:29:57.409Z,42.50
2019-03-05T12:35:01.043Z,42.10
2019-03-05T12:40:06.202Z,41.90
2019-03-05T12:45:12.669Z,43.80
2019-03-05T12:50:18.895Z,43.50
2019-03-05T12:55:22.750Z,42.80
2019-03-05T13:00:37.473Z,42.10
2019-03-05T13:05:41.115Z,41.10
2019-03-05T13:10:47.365Z,41.10
2019-03-05T13:15:52.957Z,40.00
2019-03-05T13:21:03.508Z,40.60
2019-03-05T13:26:09.161Z,39.30
2019-03-05T13:31:12.994Z,39.90
2019-03-05T13:36:16.952Z,38.70
2019-03-05T13:41:20.631Z,39.10
2019-03-05T13:46:25.875Z,39.20
2019-03-05T13:51:38.545Z,39.60
2019-03-05T13:57:08.962Z,39.40
2019-03-05T14:02:14.448Z,39.10
2019-03-05T14:07:27.094Z,39.30
2019-03-05T14:12:30.870Z,39.90
2019-03-05T14:17:35.176Z,39.70
2019-03-05T14:22:39.140Z,39.20
2019-03-05T14:27:42.917Z,39.40
2019-03-05T14:32:46.768Z,38.20
2019-03-05T14:37:51.336Z,37.50
2019-03-05T14:42:55.004Z,38.10
2019-03-05T14:47:59.707Z,38.10
2019-03-05T14:53:03.406Z,38.30
2019-03-05T14:58:07.105Z,38.50
2019-03-05T15:03:12.027Z,38.90
2019-03-05T15:08:15.701Z,38.80
2019-03-05T15:13:20.139Z,39.00
2019-03-05T15:18:25.032Z,39.40
2019-03-05T15:23:28.730Z,40.30
2019-03-05T15:28:32.429Z,40.00
2019-03-05T15:33:36.242Z,40.20
2019-03-05T15:38:39.903Z,40.10
2019-03-05T15:43:43.545Z,40.40
2019-03-05T15:48:47.235Z,40.40
2019-03-05T15:53:50.947Z,39.30
2019-03-05T15:58:54.594Z,39.00
2019-03-05T16:03:58.409Z,39.50
2019-03-05T16:09:03.605Z,39.50
2019-03-05T16:14:07.282Z,39.80
2019-03-05T16:19:16.530Z,39.60
2019-03-05T16:24:17.967Z,39.70
2019-03-05T16:29:21.689Z,40.10
2019-03-05T16:34:28.330Z,40.30
2019-03-05T16:39:41.041Z,40.10
2019-03-05T16:44:49.287Z,40.60
2019-03-05T16:49:54.633Z,42.00
2019-03-05T16:54:59.970Z,42.60
2019-03-05T17:00:23.085Z,43.20
2019-03-05T17:05:44.821Z,43.50
2019-03-05T17:10:56.075Z,43.80
2019-03-05T17:15:59.785Z,44.40
2019-03-05T17:21:03.575Z,44.60
2019-03-05T17:26:07.295Z,44.90
2019-03-05T17:31:11.351Z,45.10
2019-03-05T17:36:14.958Z,44.80
2019-03-05T17:41:18.591Z,45.10
2019-03-05T17:46:22.351Z,45.00
2019-03-05T17:51:26.090Z,44.60
2019-03-05T17:56:29.793Z,43.70
2019-03-05T18:01:33.495Z,43.20
2019-03-05T18:06:37.509Z,43.80
2019-03-05T18:11:41.954Z,43.70
2019-03-05T18:16:45.681Z,43.80
2019-03-05T18:21:49.439Z,43.30
2019-03-05T18:26:53.162Z,43.80
2019-03-05T18:31:56.820Z,43.00
2019-03-05T18:37:00.550Z,43.00
2019-03-05T18:42:04.262Z,42.90
2019-03-05T18:47:07.999Z,42.90
2019-03-05T18:52:11.721Z,42.70
2019-03-05T18:57:15.458Z,43.10
2019-03-05T19:02:19.094Z,42.50
2019-03-05T19:07:22.810Z,42.90
2019-03-05T19:12:26.839Z,43.10
2019-03-05T19:17:32.501Z,44.20
2019-03-05T19:22:36.116Z,44.20
2019-03-05T19:27:39.765Z,44.30
2019-03-05T19:32:43.480Z,45.60
2019-03-05T19:37:47.173Z,46.40
2019-03-05T19:42:50.974Z,45.10
2019-03-05T19:47:55.070Z,45.10
2019-03-05T19:52:59.140Z,44.50
2019-03-05T19:58:09.115Z,44.40
2019-03-05T20:03:12.988Z,44.40
2019-03-05T20:08:16.768Z,43.80
2019-03-05T20:13:20.387Z,45.00
2019-03-05T20:18:24.034Z,45.30
2019-03-05T20:23:27.943Z,45.30
2019-03-05T20:28:31.829Z,45.20
2019-03-05T20:33:35.521Z,45.60
2019-03-05T20:38:39.248Z,45.00
2019-03-05T20:43:43.247Z,45.10
2019-03-05T20:48:46.931Z,47.10
2019-03-05T20:53:50.545Z,47.50
2019-03-05T20:58:57.464Z,47.80
2019-03-05T21:04:01.385Z,47.90
2019-03-05T21:09:07.820Z,48.20
2019-03-05T21:14:11.455Z,46.60
2019-03-05T21:19:15.250Z,48.40
2019-03-05T21:24:20.111Z,48.90
2019-03-05T21:29:23.812Z,49.70
2019-03-05T21:34:27.434Z,48.90
2019-03-05T21:39:31.222Z,50.20
2019-03-05T21:44:34.913Z,50.40
2019-03-05T21:49:38.502Z,49.30
2019-03-05T21:54:42.291Z,49.00
2019-03-05T21:59:48.886Z,48.40
2019-03-05T22:04:52.787Z,47.80
2019-03-05T22:09:56.419Z,48.20
2019-03-05T22:15:00.037Z,47.90
2019-03-05T22:20:03.907Z,48.20
2019-03-05T22:25:19.121Z,48.60
2019-03-05T22:30:34.415Z,48.60
2019-03-05T22:35:38.071Z,49.40
2019-03-05T22:40:41.767Z,49.90
2019-03-05T22:45:45.398Z,50.20
2019-03-05T22:50:49.154Z,50.60
2019-03-05T22:55:53.121Z,51.30
2019-03-05T23:01:09.882Z,51.90
2019-03-05T23:06:14.399Z,52.70
2019-03-05T23:11:18.300Z,53.00
2019-03-05T23:16:22.893Z,53.40
2019-03-05T23:21:26.848Z,54.50
2019-03-05T23:26:30.653Z,55.20
2019-03-05T23:31:34.494Z,55.80
2019-03-05T23:36:41.149Z,56.50
2019-03-05T23:41:44.669Z,57.50
2019-03-05T23:46:48.601Z,58.00
2019-03-05T23:51:52.282Z,58.10
2019-03-05T23:56:57.929Z,58.90
